Weather at Shamshernagar Airport

Public forecast

Using degrees Celsius for public forecast. Weather courtesy of forecast.io.

Closest aviation weather report (METAR) to Shamshernagar Airport

Closest report is Agartala Airport, 47.5 nm (87.9 km) SW. Retrieved 2021/01/26 08:30 UTC (4 minutes ago):

VEAT 260830Z 34003KT 4000 HZ NSC 24/14 Q1014 NOSIG

Closest aviation forecast (TAF) to Shamshernagar Airport

Forecast is more than 12 hours old.

Closest forecast is Agartala Airport, 47.5 nm (87.9 km) SW. Retrieved 2013/07/19 12:00 UTC (8 years ago):

TAF VEAT 190900Z 1912/1921 16008KT 5000 HZ SCT018 FEW030CB BKN100 TEMPO 1912/1921 3000 -TSRA SCT015 FEW025CB OVC090